Home > Products > Valid Products > MTR

000
SAUS46 KSTO 250553
MTRBLU
METAR KBLU 250552Z AUTO 15014G21KT 10SM CLR 14/M02 A3006 RMK AO2
SLP113 T01391017 10167 20128 51001





000
SAUS46 KSTO 250453
MTRBLU
METAR KBLU 250452Z AUTO 15010G16KT 10SM CLR 14/M01 A3006 RMK AO2
SLP116 T01391006





000
SAUS46 KSTO 250354
MTRBLU
METAR KBLU 250352Z AUTO 15009G21KT 10SM CLR 14/00 A3006 RMK AO2
SLP125 T01390000





000
SAUS46 KSTO 250354
MTRBLU
METAR KBLU 250352Z AUTO 15009G21KT 10SM CLR 14/00 A3006 RMK AO2
SLP125 T01390000





000
SAUS46 KSTO 250254
MTRBLU
METAR KBLU 250252Z AUTO 15007KT 10SM CLR 13/02 A3006 RMK AO2 SLP123
T01330017 55002





000
SAUS46 KSTO 250154
MTRBLU
METAR KBLU 250152Z AUTO 16006KT 10SM CLR 13/01 A3005 RMK AO2 SLP122
T01330011





000
SAUS46 KSTO 250054
MTRBLU
METAR KBLU 250052Z AUTO 19008KT 10SM CLR 15/00 A3006 RMK AO2 SLP121
T01500000





000
SAUS46 KSTO 242354
MTRBLU
METAR KBLU 242352Z AUTO 17013KT 10SM CLR 17/M01 A3006 RMK AO2 SLP117
T01671006 10183 20161 56010





000
SAUS46 KSTO 242254
MTRBLU
METAR KBLU 242252Z AUTO 17014KT 10SM CLR 18/M01 A3008 RMK AO2 SLP122
T01781011





000
SAUS46 KSTO 242153
MTRBLU
METAR KBLU 242152Z AUTO 19014G21KT 10SM CLR 18/M01 A3009 RMK AO2
SLP125 T01831006





000
SAUS46 KSTO 242053
MTRBLU
METAR KBLU 242052Z AUTO 19014KT 10SM CLR 18/M01 A3010 RMK AO2 SLP130
T01831006 58012





000
SAUS46 KSTO 241953
MTRBLU
METAR KBLU 241952Z AUTO 18014G19KT 10SM CLR 18/M01 A3011 RMK AO2
SLP135 T01781011





000
SAUS46 KSTO 241953
MTRBLU
METAR KBLU 241952Z AUTO 18014G19KT 10SM CLR 18/M01 A3011 RMK AO2
SLP135 T01781011





000
SAUS46 KSTO 241853
MTRBLU
METAR KBLU 241852Z AUTO 16013G22KT 10SM CLR 17/M02 A3013 RMK AO2
SLP142 T01721017





000
SAUS46 KSTO 241754
MTRBLU
METAR KBLU 241752Z AUTO 17011KT 10SM CLR 16/M02 A3014 RMK AO2 SLP150
6//// T01611017 10161 20111





000
SAUS46 KSTO 241653
MTRBLU
METAR KBLU 241652Z AUTO 15009KT 10SM 15/M02 A3014 RMK AO2 SLP152
T01501017 $





000
SAUS46 KSTO 241453
MTRBLU
METAR KBLU 241452Z AUTO 13007KT 10SM CLR 11/M02 A3013 RMK AO2 SLP157
T01111022 53005 $





000
SAUS46 KSTO 241353
MTRBLU
METAR KBLU 241352Z AUTO 14007KT 110V180 10SM CLR 12/M03 A3012 RMK
AO2 SLP151 T01171028 $





000
SAUS46 KSTO 241253
MTRBLU
METAR KBLU 241252Z AUTO 14007G15KT 10SM CLR 12/M03 A3011 RMK AO2
SLP152 T01171028 $





000
SAUS46 KSTO 241153
MTRBLU
METAR KBLU 241152Z AUTO 15008KT 10SM CLR 12/M02 A3011 RMK AO2 SLP147
T01171017 10122 20100 56007 $





000
SAUS46 KSTO 241053
MTRBLU
METAR KBLU 241052Z AUTO 15008G16KT 10SM CLR 12/M02 A3011 RMK AO2
SLP145 T01171017 $





000
SAUS46 KSTO 241053
MTRBLU
METAR KBLU 241052Z AUTO 15008G16KT 10SM CLR 12/M02 A3011 RMK AO2
SLP145 T01171017 $





000
SAUS46 KSTO 240953
MTRBLU
METAR KBLU 240952Z AUTO 15007KT 10SM CLR 12/M02 A3013 RMK AO2 SLP150
T01171017 $





000
SAUS46 KSTO 240853
MTRBLU
METAR KBLU 240852Z AUTO 14006KT 10SM CLR 11/01 A3013 RMK AO2 SLP156
T01060011 58001 $





000
SAUS46 KSTO 240753
MTRBLU
METAR KBLU 240752Z AUTO 14005KT 10SM CLR 11/02 A3014 RMK AO2 SLP159
T01060017 401280094 $





000
SAUS46 KSTO 240654
MTRBLU
METAR KBLU 240652Z AUTO 14006KT 10SM CLR 11/00 A3014 RMK AO2 SLP158
T01060000 $





000
SAUS46 KSTO 240553
MTRBLU
METAR KBLU 240552Z AUTO 13005KT 10SM CLR 10/01 A3013 RMK AO2 SLP159
T01000006 10117 20100 50002 $





000
SAUS46 KSTO 240454
MTRBLU
METAR KBLU 240452Z AUTO 13005KT 10SM CLR 11/01 A3014 RMK AO2 SLP160
T01060006 $





000
SAUS46 KSTO 240454
MTRBLU
METAR KBLU 240452Z AUTO 13005KT 10SM CLR 11/01 A3014 RMK AO2 SLP160
T01060006 $





000
SAUS46 KSTO 240353
MTRBLU
METAR KBLU 240352Z AUTO 14005KT 10SM CLR 11/01 A3013 RMK AO2 SLP161
T01060011 $





000
SAUS46 KSTO 240353
MTRBLU
METAR KBLU 240352Z AUTO 14005KT 10SM CLR 11/01 A3013 RMK AO2 SLP161
T01060011 $





000
SAUS46 KSTO 240253
MTRBLU
METAR KBLU 240252Z AUTO 13005KT 10SM CLR 11/02 A3013 RMK AO2 SLP160
T01110017 56005 $





000
SAUS46 KSTO 240253
MTRBLU
METAR KBLU 240252Z AUTO 13005KT 10SM CLR 11/02 A3013 RMK AO2 SLP160
T01110017 56005 $





000
SAUS46 KSTO 240153
MTRBLU
METAR KBLU 240152Z AUTO 14006KT 10SM CLR 11/03 A3013 RMK AO2 SLP160
T01110028 $





000
SAUS46 KSTO 240153
MTRBLU
METAR KBLU 240152Z AUTO 14006KT 10SM CLR 11/03 A3013 RMK AO2 SLP160
T01110028 $





000
SAUS46 KSTO 240053
MTRBLU
METAR KBLU 240052Z AUTO 00000KT 10SM SCT110 11/04 A3014 RMK AO2
SLP166 T01060044 $





000
SAUS46 KSTO 232353
MTRBLU
METAR KBLU 232352Z AUTO 16004KT 10SM OVC120 12/04 A3015 RMK AO2
SLP160 T01170039 10128 20117 56008 $





000
SAUS46 KSTO 232253
MTRBLU
METAR KBLU 232252Z AUTO 17005KT 10SM OVC110 12/03 A3016 RMK AO2
SLP165 T01220033 $





000
SAUS46 KSTO 232153
MTRBLU
METAR KBLU 232152Z AUTO 16006KT 10SM OVC100 13/02 A3016 RMK AO2
SLP161 T01280022 $





000
SAUS46 KSTO 232153
MTRBLU
METAR KBLU 232152Z AUTO 16006KT 10SM OVC100 13/02 A3016 RMK AO2
SLP161 T01280022 $





000
SAUS46 KSTO 232054
MTRBLU
METAR KBLU 232052Z AUTO 18007KT 10SM BKN120 12/02 A3017 RMK AO2
SLP170 T01220017 58007 $





000
SAUS46 KSTO 231953
MTRBLU
METAR KBLU 231952Z AUTO 18007KT 10SM SCT110 13/01 A3019 RMK AO2
SLP173 T01280011 $





000
SAUS46 KSTO 231953
MTRBLU
METAR KBLU 231952Z AUTO 18007KT 10SM SCT110 13/01 A3019 RMK AO2
SLP173 T01280011 $





000
SAUS46 KSTO 231853
MTRBLU
METAR KBLU 231852Z AUTO 18006KT 10SM BKN100 12/02 A3020 RMK AO2
SLP178 T01220017 $





000
SAUS46 KSTO 231853
MTRBLU
METAR KBLU 231852Z AUTO 18006KT 10SM BKN100 12/02 A3020 RMK AO2
SLP178 T01220017 $





000
SAUS46 KSTO 231753
MTRBLU
METAR KBLU 231752Z AUTO 16005KT 10SM OVC100 12/01 A3020 RMK AO2
SLP181 T01170011 10117 20094 51008 $





000
SAUS46 KSTO 231753
MTRBLU
METAR KBLU 231752Z AUTO 16005KT 10SM OVC100 12/01 A3020 RMK AO2
SLP181 T01170011 10117 20094 51008 $





000
SAUS46 KSTO 231653
MTRBLU
METAR KBLU 231652Z AUTO VRB04KT 10SM BKN110 11/02 A3019 RMK AO2
SLP182 T01110017 $





000
SAUS46 KSTO 231653
MTRBLU
METAR KBLU 231652Z AUTO VRB04KT 10SM BKN110 11/02 A3019 RMK AO2
SLP182 T01110017 $





000
SAUS46 KSTO 231553
MTRBLU
METAR KBLU 231552Z AUTO 14005KT 10SM BKN120 11/00 A3019 RMK AO2
SLP181 T01060000 $





000
SAUS46 KSTO 231453
MTRBLU
METAR KBLU 231452Z AUTO 14004KT 10SM FEW120 10/M02 A3017 RMK AO2
SLP177 T01001017 53005 $





000
SAUS46 KSTO 231453
MTRBLU
METAR KBLU 231452Z AUTO 14004KT 10SM FEW120 10/M02 A3017 RMK AO2
SLP177 T01001017 53005 $





000
SAUS46 KSTO 231353
MTRBLU
METAR KBLU 231352Z AUTO 13005KT 10SM CLR 10/M02 A3016 RMK AO2 SLP173
T01001017 $





000
SAUS46 KSTO 231253
MTRBLU
METAR KBLU 231252Z AUTO 14004KT 10SM CLR 09/M02 A3015 RMK AO2 SLP168
T00941017 $





000
SAUS46 KSTO 231153
MTRBLU
METAR KBLU 231152Z AUTO 17006KT 10SM CLR 11/M02 A3015 RMK AO2 SLP159
T01111017 10117 20100 55002 $





000
SAUS46 KSTO 231053
MTRBLU
METAR KBLU 231052Z AUTO 15005KT 10SM CLR 11/M02 A3014 RMK AO2 SLP154
T01111022 $





000
SAUS46 KSTO 230953
MTRBLU
METAR KBLU 230952Z AUTO 14005KT 10SM FEW120 12/M02 A3016 RMK AO2
SLP160 T01171022 $





000
SAUS46 KSTO 230953
MTRBLU
METAR KBLU 230952Z AUTO 14005KT 10SM FEW120 12/M02 A3016 RMK AO2
SLP160 T01171022 $





000
SAUS46 KSTO 230853
MTRBLU
METAR KBLU 230852Z AUTO 15006KT 10SM CLR 11/M02 A3016 RMK AO2 SLP161
T01111022 58006 $





000
SAUS46 KSTO 230753
MTRBLU
METAR KBLU 230752Z AUTO 13004KT 10SM CLR 11/M02 A3017 RMK AO2 SLP162
T01111022 401500083 $





000
SAUS46 KSTO 230753
MTRBLU
METAR KBLU 230752Z AUTO 13004KT 10SM CLR 11/M02 A3017 RMK AO2 SLP162
T01111022 401500083 $





000
SAUS46 KSTO 230653
MTRBLU
METAR KBLU 230652Z AUTO 12003KT 10SM CLR 11/M02 A3018 RMK AO2 SLP165
T01061022 $





000
SAUS46 KSTO 230553
MTRBLU
METAR KBLU 230552Z AUTO 12004KT 10SM CLR 10/M01 A3018 RMK AO2 SLP168
T01001006 10133 20094 51002 $





000
SAUS46 KSTO 230553
MTRBLU
METAR KBLU 230552Z AUTO 12004KT 10SM CLR 10/M01 A3018 RMK AO2 SLP168
T01001006 10133 20094 51002 $





000
SAUS46 KSTO 230453
MTRBLU
METAR KBLU 230452Z AUTO 13004KT 10SM CLR 10/00 A3018 RMK AO2 SLP172
T01000000 $





000
SAUS46 KSTO 230453
MTRBLU
METAR KBLU 230452Z AUTO 13004KT 10SM CLR 10/00 A3018 RMK AO2 SLP172
T01000000 $





000
SAUS46 KSTO 230353
MTRBLU
METAR KBLU 230352Z AUTO 15003KT 10SM CLR 10/00 A3018 RMK AO2 SLP174
T01000000 $





000
SAUS46 KSTO 230353
MTRBLU
METAR KBLU 230352Z AUTO 15003KT 10SM CLR 10/00 A3018 RMK AO2 SLP174
T01000000 $





000
SAUS46 KSTO 230253
MTRBLU
METAR KBLU 230252Z AUTO 13003KT 10SM CLR 10/01 A3017 RMK AO2 SLP175
T01000006 53005 $





000
SAUS46 KSTO 230153
MTRBLU
METAR KBLU 230152Z AUTO 15004KT 10SM CLR 10/02 A3015 RMK AO2 SLP170
T01000017 $





000
SAUS46 KSTO 230153
MTRBLU
METAR KBLU 230152Z AUTO 15004KT 10SM CLR 10/02 A3015 RMK AO2 SLP170
T01000017 $





000
SAUS46 KSTO 230053
MTRBLU
METAR KBLU 230052Z AUTO 16005KT 10SM CLR 12/01 A3015 RMK AO2 SLP163
T01170011 $





000
SAUS46 KSTO 230053
MTRBLU
METAR KBLU 230052Z AUTO 16005KT 10SM CLR 12/01 A3015 RMK AO2 SLP163
T01170011 $





000
SAUS46 KSTO 222353
MTRBLU
METAR KBLU 222352Z AUTO 18005KT 10SM CLR 13/00 A3015 RMK AO2 SLP163
T01330000 10150 20133 58004 $





000
SAUS46 KSTO 222353
MTRBLU
METAR KBLU 222352Z AUTO 18005KT 10SM CLR 13/00 A3015 RMK AO2 SLP163
T01330000 10150 20133 58004 $





000
SAUS46 KSTO 222253
MTRBLU
METAR KBLU 222252Z AUTO 19004KT 10SM CLR 14/M01 A3016 RMK AO2 SLP166
T01391006 $





000
SAUS46 KSTO 222253
MTRBLU
METAR KBLU 222252Z AUTO 19004KT 10SM CLR 14/M01 A3016 RMK AO2 SLP166
T01391006 $





000
SAUS46 KSTO 222153
MTRBLU
METAR KBLU 222152Z AUTO 17007KT 10SM CLR 14/M02 A3017 RMK AO2 SLP164
T01391022 $





000
SAUS46 KSTO 222053
MTRBLU
METAR KBLU 222052Z AUTO 17005KT 10SM CLR 13/M02 A3017 RMK AO2 SLP171
T01331017 50000





000
SAUS46 KSTO 221953
MTRBLU
METAR KBLU 221952Z AUTO 21005KT 10SM CLR 14/M06 A3018 RMK AO2 SLP172
T01391056





000
SAUS46 KSTO 221853
MTRBLU
METAR KBLU 221852Z AUTO 17007KT 10SM CLR 14/M13 A3018 RMK AO2 SLP172
T01441133





000
SAUS46 KSTO 221753
MTRBLU
METAR KBLU 221752Z AUTO 17006KT 10SM CLR 14/M12 A3017 RMK AO2 SLP170
T01391117 10144 20094 51009





000
SAUS46 KSTO 221753
MTRBLU
METAR KBLU 221752Z AUTO 17006KT 10SM CLR 14/M12 A3017 RMK AO2 SLP170
T01391117 10144 20094 51009





000
SAUS46 KSTO 221653
MTRBLU
METAR KBLU 221652Z AUTO 16007KT 10SM CLR 13/M14 A3016 RMK AO2 SLP168
T01331139





000
SAUS46 KSTO 221653
MTRBLU
METAR KBLU 221652Z AUTO 16007KT 10SM CLR 13/M14 A3016 RMK AO2 SLP168
T01331139





000
SAUS46 KSTO 221553
MTRBLU
METAR KBLU 221552Z AUTO 12003KT 10SM CLR 12/M11 A3015 RMK AO2 SLP169
T01171106





000
SAUS46 KSTO 221553
MTRBLU
METAR KBLU 221552Z AUTO 12003KT 10SM CLR 12/M11 A3015 RMK AO2 SLP169
T01171106





000
SAUS46 KSTO 221453
MTRBLU
METAR KBLU 221452Z AUTO 12003KT 10SM CLR 11/M16 A3014 RMK AO2 SLP168
T01111161 53001





000
SAUS46 KSTO 221353
MTRBLU
METAR KBLU 221352Z AUTO 10004KT 10SM CLR 09/M16 A3013 RMK AO2 SLP169
T00941156





000
SAUS46 KSTO 221253
MTRBLU
METAR KBLU 221252Z AUTO 08003KT 10SM CLR 10/M13 A3013 RMK AO2 SLP160
T01001133





000
SAUS46 KSTO 221153
MTRBLU
METAR KBLU 221152Z AUTO 10003KT 10SM CLR 09/M07 A3013 RMK AO2 SLP161
T00941067 10100 20078 51001





000
SAUS46 KSTO 221053
MTRBLU
METAR KBLU 221052Z AUTO 11003KT 10SM CLR 09/M09 A3013 RMK AO2 SLP160
T00941094





000
SAUS46 KSTO 220953
MTRBLU
METAR KBLU 220952Z AUTO 00000KT 10SM CLR 10/M12 A3014 RMK AO2 SLP163
T01001122





000
SAUS46 KSTO 220953
MTRBLU
METAR KBLU 220952Z AUTO 00000KT 10SM CLR 10/M12 A3014 RMK AO2 SLP163
T01001122





000
SAUS46 KSTO 220854
MTRBLU
METAR KBLU 220852Z AUTO 00000KT 10SM CLR 08/M08 A3013 RMK AO2 SLP162
T00831083 53001





000
SAUS46 KSTO 220753
MTRBLU
METAR KBLU 220752Z AUTO 00000KT 10SM CLR 09/M04 A3012 RMK AO2 SLP161
T00891039 401220011





000
SAUS46 KSTO 220653
MTRBLU
METAR KBLU 220652Z AUTO 10003KT 10SM CLR 08/M05 A3012 RMK AO2 SLP163
T00831050





    US Dept of Commerce
    National Oceanic and Atmospheric Administration
    National Weather Service
    1325 East West Highway
    Silver Spring, MD 20910
    Page Author: NWS Internet Services Team
Disclaimer
Information Quality
Credits
Glossary
Privacy Policy
Freedom of Information Act (FOIA)
About Us
Career Opportunities